sensor_id;sensor_type;location;lat;lon;timestamp;P1;durP1;ratioP1;P2;durP2;ratioP2
62941;SDS011;49042;47.318;19.874;2023-03-08T00:00:43;27.40;;;13.13;;
62941;SDS011;49042;47.318;19.874;2023-03-08T00:03:45;26.25;;;14.10;;
62941;SDS011;49042;47.318;19.874;2023-03-08T00:06:47;23.75;;;13.05;;
62941;SDS011;49042;47.318;19.874;2023-03-08T00:09:49;22.90;;;13.98;;
62941;SDS011;49042;47.318;19.874;2023-03-08T00:12:51;22.77;;;13.32;;
62941;SDS011;49042;47.318;19.874;2023-03-08T00:15:52;22.05;;;13.60;;
62941;SDS011;49042;47.318;19.874;2023-03-08T00:18:54;24.05;;;13.32;;
62941;SDS011;49042;47.318;19.874;2023-03-08T00:21:56;25.23;;;13.55;;
62941;SDS011;49042;47.318;19.874;2023-03-08T00:24:58;23.35;;;14.45;;
62941;SDS011;49042;47.318;19.874;2023-03-08T00:28:00;29.77;;;15.20;;
62941;SDS011;49042;47.318;19.874;2023-03-08T00:31:06;26.20;;;14.52;;
62941;SDS011;49042;47.318;19.874;2023-03-08T00:34:09;25.15;;;14.30;;
62941;SDS011;49042;47.318;19.874;2023-03-08T00:37:12;28.98;;;14.73;;
62941;SDS011;49042;47.318;19.874;2023-03-08T00:40:14;23.10;;;13.73;;
62941;SDS011;49042;47.318;19.874;2023-03-08T00:43:16;27.90;;;15.88;;
62941;SDS011;49042;47.318;19.874;2023-03-08T00:46:17;24.52;;;14.32;;
62941;SDS011;49042;47.318;19.874;2023-03-08T00:49:19;25.62;;;15.00;;
62941;SDS011;49042;47.318;19.874;2023-03-08T00:52:22;27.58;;;15.07;;
62941;SDS011;49042;47.318;19.874;2023-03-08T00:55:24;25.75;;;15.25;;
62941;SDS011;49042;47.318;19.874;2023-03-08T00:58:27;32.10;;;17.92;;
62941;SDS011;49042;47.318;19.874;2023-03-08T01:01:30;32.30;;;17.08;;
62941;SDS011;49042;47.318;19.874;2023-03-08T01:04:32;30.80;;;17.17;;
62941;SDS011;49042;47.318;19.874;2023-03-08T01:07:34;31.85;;;17.25;;
62941;SDS011;49042;47.318;19.874;2023-03-08T01:10:36;29.50;;;16.20;;
62941;SDS011;49042;47.318;19.874;2023-03-08T01:13:38;29.80;;;16.50;;
62941;SDS011;49042;47.318;19.874;2023-03-08T01:16:39;27.52;;;15.85;;
62941;SDS011;49042;47.318;19.874;2023-03-08T01:19:41;29.77;;;16.45;;
62941;SDS011;49042;47.318;19.874;2023-03-08T01:22:43;28.35;;;16.30;;
62941;SDS011;49042;47.318;19.874;2023-03-08T01:25:44;29.05;;;17.05;;
62941;SDS011;49042;47.318;19.874;2023-03-08T01:28:46;29.85;;;15.93;;
62941;SDS011;49042;47.318;19.874;2023-03-08T01:31:48;28.90;;;16.60;;
62941;SDS011;49042;47.318;19.874;2023-03-08T01:34:50;28.87;;;16.05;;
62941;SDS011;49042;47.318;19.874;2023-03-08T01:37:52;29.15;;;15.90;;
62941;SDS011;49042;47.318;19.874;2023-03-08T01:40:54;23.85;;;14.52;;
62941;SDS011;49042;47.318;19.874;2023-03-08T01:44:00;28.02;;;15.52;;
62941;SDS011;49042;47.318;19.874;2023-03-08T01:47:01;26.70;;;16.27;;
62941;SDS011;49042;47.318;19.874;2023-03-08T01:50:05;42.62;;;19.17;;
62941;SDS011;49042;47.318;19.874;2023-03-08T01:53:11;110.85;;;36.35;;
62941;SDS011;49042;47.318;19.874;2023-03-08T01:56:14;61.10;;;25.42;;
62941;SDS011;49042;47.318;19.874;2023-03-08T01:59:19;53.17;;;22.52;;
62941;SDS011;49042;47.318;19.874;2023-03-08T02:02:27;34.92;;;17.40;;
62941;SDS011;49042;47.318;19.874;2023-03-08T02:05:41;41.42;;;19.15;;
62941;SDS011;49042;47.318;19.874;2023-03-08T02:08:44;33.33;;;17.50;;
62941;SDS011;49042;47.318;19.874;2023-03-08T02:11:45;39.42;;;18.02;;
62941;SDS011;49042;47.318;19.874;2023-03-08T02:14:48;121.95;;;46.00;;
62941;SDS011;49042;47.318;19.874;2023-03-08T02:17:50;80.50;;;32.25;;
62941;SDS011;49042;47.318;19.874;2023-03-08T02:20:52;84.32;;;33.80;;
62941;SDS011;49042;47.318;19.874;2023-03-08T02:23:54;77.05;;;32.03;;
62941;SDS011;49042;47.318;19.874;2023-03-08T02:27:02;67.53;;;28.50;;
62941;SDS011;49042;47.318;19.874;2023-03-08T02:30:08;66.07;;;27.37;;
62941;SDS011;49042;47.318;19.874;2023-03-08T02:33:12;62.25;;;25.42;;
62941;SDS011;49042;47.318;19.874;2023-03-08T02:36:14;50.33;;;24.92;;
62941;SDS011;49042;47.318;19.874;2023-03-08T02:39:16;81.78;;;29.83;;
62941;SDS011;49042;47.318;19.874;2023-03-08T02:42:17;71.53;;;27.02;;
62941;SDS011;49042;47.318;19.874;2023-03-08T02:45:19;50.10;;;22.85;;
62941;SDS011;49042;47.318;19.874;2023-03-08T02:48:21;37.40;;;18.60;;
62941;SDS011;49042;47.318;19.874;2023-03-08T02:51:22;37.45;;;17.98;;
62941;SDS011;49042;47.318;19.874;2023-03-08T02:54:24;61.58;;;24.55;;
62941;SDS011;49042;47.318;19.874;2023-03-08T02:57:26;47.40;;;23.35;;
62941;SDS011;49042;47.318;19.874;2023-03-08T03:00:27;38.25;;;20.45;;
62941;SDS011;49042;47.318;19.874;2023-03-08T03:03:29;31.48;;;15.90;;
62941;SDS011;49042;47.318;19.874;2023-03-08T03:06:31;29.30;;;15.88;;
62941;SDS011;49042;47.318;19.874;2023-03-08T03:09:34;31.92;;;17.08;;
62941;SDS011;49042;47.318;19.874;2023-03-08T03:12:36;37.45;;;17.40;;
62941;SDS011;49042;47.318;19.874;2023-03-08T03:15:38;47.30;;;20.58;;
62941;SDS011;49042;47.318;19.874;2023-03-08T03:18:40;64.03;;;24.08;;
62941;SDS011;49042;47.318;19.874;2023-03-08T03:21:42;36.67;;;17.58;;
62941;SDS011;49042;47.318;19.874;2023-03-08T03:24:43;30.05;;;16.27;;
62941;SDS011;49042;47.318;19.874;2023-03-08T03:27:45;45.22;;;19.75;;
62941;SDS011;49042;47.318;19.874;2023-03-08T03:30:47;62.40;;;21.83;;
62941;SDS011;49042;47.318;19.874;2023-03-08T03:33:49;57.53;;;21.62;;
62941;SDS011;49042;47.318;19.874;2023-03-08T03:36:53;78.72;;;22.92;;
62941;SDS011;49042;47.318;19.874;2023-03-08T03:39:55;55.20;;;21.87;;
62941;SDS011;49042;47.318;19.874;2023-03-08T03:42:56;57.72;;;24.37;;
62941;SDS011;49042;47.318;19.874;2023-03-08T03:45:59;54.03;;;23.45;;
62941;SDS011;49042;47.318;19.874;2023-03-08T03:49:02;50.65;;;22.05;;
62941;SDS011;49042;47.318;19.874;2023-03-08T03:52:04;56.65;;;22.15;;
62941;SDS011;49042;47.318;19.874;2023-03-08T03:55:06;49.75;;;19.90;;
62941;SDS011;49042;47.318;19.874;2023-03-08T03:58:08;38.45;;;19.62;;
62941;SDS011;49042;47.318;19.874;2023-03-08T04:01:14;42.40;;;19.60;;
62941;SDS011;49042;47.318;19.874;2023-03-08T04:04:17;38.05;;;17.67;;
62941;SDS011;49042;47.318;19.874;2023-03-08T04:07:19;38.22;;;18.35;;
62941;SDS011;49042;47.318;19.874;2023-03-08T04:10:21;30.98;;;16.73;;
62941;SDS011;49042;47.318;19.874;2023-03-08T04:13:23;32.58;;;16.80;;
62941;SDS011;49042;47.318;19.874;2023-03-08T04:16:28;33.42;;;17.48;;
62941;SDS011;49042;47.318;19.874;2023-03-08T04:19:35;38.65;;;17.87;;
62941;SDS011;49042;47.318;19.874;2023-03-08T04:22:36;33.50;;;18.17;;
62941;SDS011;49042;47.318;19.874;2023-03-08T04:25:38;32.45;;;17.65;;
62941;SDS011;49042;47.318;19.874;2023-03-08T04:28:40;33.78;;;18.12;;
62941;SDS011;49042;47.318;19.874;2023-03-08T04:31:42;33.25;;;18.55;;
62941;SDS011;49042;47.318;19.874;2023-03-08T04:34:44;36.22;;;17.48;;
62941;SDS011;49042;47.318;19.874;2023-03-08T04:37:45;32.80;;;17.30;;
62941;SDS011;49042;47.318;19.874;2023-03-08T04:40:50;32.20;;;16.75;;
62941;SDS011;49042;47.318;19.874;2023-03-08T04:44:13;28.70;;;17.20;;
62941;SDS011;49042;47.318;19.874;2023-03-08T04:47:15;34.83;;;17.23;;
62941;SDS011;49042;47.318;19.874;2023-03-08T04:50:17;47.25;;;17.67;;
62941;SDS011;49042;47.318;19.874;2023-03-08T04:53:19;46.78;;;16.42;;
62941;SDS011;49042;47.318;19.874;2023-03-08T04:56:21;47.03;;;18.37;;
62941;SDS011;49042;47.318;19.874;2023-03-08T04:59:23;30.37;;;15.20;;
62941;SDS011;49042;47.318;19.874;2023-03-08T05:02:24;40.00;;;16.52;;
62941;SDS011;49042;47.318;19.874;2023-03-08T05:05:26;28.25;;;15.32;;
62941;SDS011;49042;47.318;19.874;2023-03-08T05:08:28;31.67;;;16.35;;
62941;SDS011;49042;47.318;19.874;2023-03-08T05:11:29;29.52;;;16.52;;
62941;SDS011;49042;47.318;19.874;2023-03-08T05:14:31;26.17;;;15.15;;
62941;SDS011;49042;47.318;19.874;2023-03-08T05:17:33;38.58;;;16.05;;
62941;SDS011;49042;47.318;19.874;2023-03-08T05:20:34;38.95;;;17.12;;
62941;SDS011;49042;47.318;19.874;2023-03-08T05:23:36;52.83;;;16.67;;
62941;SDS011;49042;47.318;19.874;2023-03-08T05:26:38;45.90;;;16.02;;
62941;SDS011;49042;47.318;19.874;2023-03-08T05:29:39;36.88;;;16.75;;
62941;SDS011;49042;47.318;19.874;2023-03-08T05:32:41;28.80;;;16.45;;
62941;SDS011;49042;47.318;19.874;2023-03-08T05:35:43;26.15;;;15.63;;
62941;SDS011;49042;47.318;19.874;2023-03-08T05:38:53;28.62;;;16.70;;
62941;SDS011;49042;47.318;19.874;2023-03-08T05:41:55;39.10;;;16.75;;
62941;SDS011;49042;47.318;19.874;2023-03-08T05:44:57;26.15;;;15.98;;
62941;SDS011;49042;47.318;19.874;2023-03-08T05:47:59;26.65;;;16.37;;
62941;SDS011;49042;47.318;19.874;2023-03-08T05:51:11;27.23;;;15.63;;
62941;SDS011;49042;47.318;19.874;2023-03-08T05:54:15;28.17;;;16.50;;
62941;SDS011;49042;47.318;19.874;2023-03-08T05:57:16;29.17;;;15.50;;
62941;SDS011;49042;47.318;19.874;2023-03-08T06:00:18;26.70;;;16.37;;
62941;SDS011;49042;47.318;19.874;2023-03-08T06:03:20;24.58;;;15.25;;
62941;SDS011;49042;47.318;19.874;2023-03-08T06:06:23;24.67;;;15.20;;
62941;SDS011;49042;47.318;19.874;2023-03-08T06:09:26;29.05;;;14.85;;
62941;SDS011;49042;47.318;19.874;2023-03-08T06:12:27;29.55;;;16.05;;
62941;SDS011;49042;47.318;19.874;2023-03-08T06:15:29;25.20;;;15.75;;
62941;SDS011;49042;47.318;19.874;2023-03-08T06:18:31;23.15;;;15.75;;
62941;SDS011;49042;47.318;19.874;2023-03-08T06:21:34;25.20;;;15.40;;
62941;SDS011;49042;47.318;19.874;2023-03-08T06:24:35;26.05;;;15.32;;
62941;SDS011;49042;47.318;19.874;2023-03-08T06:27:37;24.85;;;16.05;;
62941;SDS011;49042;47.318;19.874;2023-03-08T06:30:39;29.58;;;16.70;;
62941;SDS011;49042;47.318;19.874;2023-03-08T06:33:41;32.13;;;16.15;;
62941;SDS011;49042;47.318;19.874;2023-03-08T06:36:42;29.77;;;16.10;;
62941;SDS011;49042;47.318;19.874;2023-03-08T06:39:44;28.48;;;16.77;;
62941;SDS011;49042;47.318;19.874;2023-03-08T06:42:46;25.90;;;15.75;;
62941;SDS011;49042;47.318;19.874;2023-03-08T06:45:48;25.12;;;15.52;;
62941;SDS011;49042;47.318;19.874;2023-03-08T06:48:49;27.52;;;15.32;;
62941;SDS011;49042;47.318;19.874;2023-03-08T06:51:51;24.45;;;14.82;;
62941;SDS011;49042;47.318;19.874;2023-03-08T06:54:53;24.48;;;15.30;;
62941;SDS011;49042;47.318;19.874;2023-03-08T06:57:55;25.17;;;15.52;;
62941;SDS011;49042;47.318;19.874;2023-03-08T07:00:56;30.15;;;16.40;;
62941;SDS011;49042;47.318;19.874;2023-03-08T07:04:00;30.17;;;17.23;;
62941;SDS011;49042;47.318;19.874;2023-03-08T07:07:02;26.55;;;16.75;;
62941;SDS011;49042;47.318;19.874;2023-03-08T07:10:04;24.70;;;16.00;;
62941;SDS011;49042;47.318;19.874;2023-03-08T07:13:06;26.27;;;16.10;;
62941;SDS011;49042;47.318;19.874;2023-03-08T07:16:08;25.30;;;16.08;;
62941;SDS011;49042;47.318;19.874;2023-03-08T07:19:11;28.17;;;16.27;;
62941;SDS011;49042;47.318;19.874;2023-03-08T07:22:13;29.83;;;15.68;;
62941;SDS011;49042;47.318;19.874;2023-03-08T07:25:16;25.73;;;15.45;;
62941;SDS011;49042;47.318;19.874;2023-03-08T07:28:19;25.45;;;14.35;;
62941;SDS011;49042;47.318;19.874;2023-03-08T07:31:21;23.10;;;14.55;;
62941;SDS011;49042;47.318;19.874;2023-03-08T07:34:23;28.73;;;15.35;;
62941;SDS011;49042;47.318;19.874;2023-03-08T07:37:24;25.50;;;15.52;;
62941;SDS011;49042;47.318;19.874;2023-03-08T07:40:26;27.08;;;14.10;;
62941;SDS011;49042;47.318;19.874;2023-03-08T07:43:28;22.90;;;13.70;;
62941;SDS011;49042;47.318;19.874;2023-03-08T07:46:30;23.62;;;13.95;;
62941;SDS011;49042;47.318;19.874;2023-03-08T07:49:31;22.10;;;13.62;;
62941;SDS011;49042;47.318;19.874;2023-03-08T07:52:33;22.52;;;12.82;;
62941;SDS011;49042;47.318;19.874;2023-03-08T07:55:35;28.12;;;12.43;;
62941;SDS011;49042;47.318;19.874;2023-03-08T07:58:38;23.15;;;13.25;;
62941;SDS011;49042;47.318;19.874;2023-03-08T08:01:40;18.75;;;12.50;;
62941;SDS011;49042;47.318;19.874;2023-03-08T08:04:42;17.52;;;11.18;;
62941;SDS011;49042;47.318;19.874;2023-03-08T08:07:45;16.15;;;10.35;;
62941;SDS011;49042;47.318;19.874;2023-03-08T08:10:47;21.40;;;11.98;;
62941;SDS011;49042;47.318;19.874;2023-03-08T08:13:49;22.33;;;12.15;;
62941;SDS011;49042;47.318;19.874;2023-03-08T08:16:51;18.65;;;11.80;;
62941;SDS011;49042;47.318;19.874;2023-03-08T08:19:52;18.40;;;11.60;;
62941;SDS011;49042;47.318;19.874;2023-03-08T08:22:54;18.73;;;11.50;;
62941;SDS011;49042;47.318;19.874;2023-03-08T08:25:56;18.98;;;12.07;;
62941;SDS011;49042;47.318;19.874;2023-03-08T08:28:58;22.05;;;12.00;;
62941;SDS011;49042;47.318;19.874;2023-03-08T08:32:01;18.77;;;11.12;;
62941;SDS011;49042;47.318;19.874;2023-03-08T08:35:04;37.00;;;14.57;;
62941;SDS011;49042;47.318;19.874;2023-03-08T08:38:07;44.90;;;16.40;;
62941;SDS011;49042;47.318;19.874;2023-03-08T08:41:08;39.78;;;15.82;;
62941;SDS011;49042;47.318;19.874;2023-03-08T08:44:10;20.08;;;11.48;;
62941;SDS011;49042;47.318;19.874;2023-03-08T08:47:12;16.35;;;10.13;;
62941;SDS011;49042;47.318;19.874;2023-03-08T08:50:14;18.12;;;9.00;;
62941;SDS011;49042;47.318;19.874;2023-03-08T08:53:16;17.23;;;9.05;;
62941;SDS011;49042;47.318;19.874;2023-03-08T08:56:22;21.17;;;10.05;;
62941;SDS011;49042;47.318;19.874;2023-03-08T08:59:28;17.45;;;10.07;;
62941;SDS011;49042;47.318;19.874;2023-03-08T09:02:29;18.33;;;10.57;;
62941;SDS011;49042;47.318;19.874;2023-03-08T09:05:31;16.92;;;10.68;;
62941;SDS011;49042;47.318;19.874;2023-03-08T09:08:34;20.40;;;10.85;;
62941;SDS011;49042;47.318;19.874;2023-03-08T09:11:35;16.80;;;9.80;;
62941;SDS011;49042;47.318;19.874;2023-03-08T09:14:53;16.90;;;10.10;;
62941;SDS011;49042;47.318;19.874;2023-03-08T09:17:55;19.23;;;10.05;;
62941;SDS011;49042;47.318;19.874;2023-03-08T09:20:59;17.25;;;9.90;;
62941;SDS011;49042;47.318;19.874;2023-03-08T09:24:03;15.07;;;8.77;;
62941;SDS011;49042;47.318;19.874;2023-03-08T09:27:06;14.60;;;9.27;;
62941;SDS011;49042;47.318;19.874;2023-03-08T09:30:09;20.85;;;8.82;;
62941;SDS011;49042;47.318;19.874;2023-03-08T09:33:12;14.90;;;8.80;;
62941;SDS011;49042;47.318;19.874;2023-03-08T09:36:14;14.07;;;8.90;;
62941;SDS011;49042;47.318;19.874;2023-03-08T09:39:17;13.77;;;8.82;;
62941;SDS011;49042;47.318;19.874;2023-03-08T09:42:22;11.65;;;7.85;;
62941;SDS011;49042;47.318;19.874;2023-03-08T09:45:27;14.05;;;8.77;;
62941;SDS011;49042;47.318;19.874;2023-03-08T09:48:29;14.50;;;8.80;;
62941;SDS011;49042;47.318;19.874;2023-03-08T09:51:33;13.88;;;7.82;;
62941;SDS011;49042;47.318;19.874;2023-03-08T09:54:38;15.10;;;8.93;;
62941;SDS011;49042;47.318;19.874;2023-03-08T09:57:49;12.15;;;7.78;;
62941;SDS011;49042;47.318;19.874;2023-03-08T10:00:56;12.00;;;8.07;;
62941;SDS011;49042;47.318;19.874;2023-03-08T10:13:33;11.45;;;7.47;;
62941;SDS011;49042;47.318;19.874;2023-03-08T10:16:43;11.70;;;7.78;;
62941;SDS011;49042;47.318;19.874;2023-03-08T10:19:54;19.27;;;8.50;;
62941;SDS011;49042;47.318;19.874;2023-03-08T10:23:11;15.65;;;7.80;;
62941;SDS011;49042;47.318;19.874;2023-03-08T10:26:16;13.07;;;7.43;;
62941;SDS011;49042;47.318;19.874;2023-03-08T10:29:18;11.93;;;7.07;;
62941;SDS011;49042;47.318;19.874;2023-03-08T10:32:22;17.80;;;7.57;;
62941;SDS011;49042;47.318;19.874;2023-03-08T10:38:38;10.20;;;6.82;;
62941;SDS011;49042;47.318;19.874;2023-03-08T10:41:41;10.48;;;6.43;;
62941;SDS011;49042;47.318;19.874;2023-03-08T10:47:58;13.05;;;6.90;;
62941;SDS011;49042;47.318;19.874;2023-03-08T10:51:15;12.35;;;6.85;;
62941;SDS011;49042;47.318;19.874;2023-03-08T10:54:17;13.48;;;6.82;;
62941;SDS011;49042;47.318;19.874;2023-03-08T10:57:18;14.18;;;7.80;;
62941;SDS011;49042;47.318;19.874;2023-03-08T11:00:32;10.68;;;6.80;;
62941;SDS011;49042;47.318;19.874;2023-03-08T11:03:36;11.43;;;7.85;;
62941;SDS011;49042;47.318;19.874;2023-03-08T11:06:38;14.15;;;8.02;;
62941;SDS011;49042;47.318;19.874;2023-03-08T11:09:40;12.82;;;7.90;;
62941;SDS011;49042;47.318;19.874;2023-03-08T11:12:41;13.85;;;8.10;;
62941;SDS011;49042;47.318;19.874;2023-03-08T11:15:46;12.20;;;7.10;;
62941;SDS011;49042;47.318;19.874;2023-03-08T11:31:57;12.98;;;8.45;;
62941;SDS011;49042;47.318;19.874;2023-03-08T11:41:21;13.30;;;8.07;;
62941;SDS011;49042;47.318;19.874;2023-03-08T11:58:05;17.62;;;8.65;;
62941;SDS011;49042;47.318;19.874;2023-03-08T12:01:13;12.98;;;8.43;;
62941;SDS011;49042;47.318;19.874;2023-03-08T12:04:22;15.40;;;8.57;;
62941;SDS011;49042;47.318;19.874;2023-03-08T12:07:38;13.15;;;7.62;;
62941;SDS011;49042;47.318;19.874;2023-03-08T12:17:34;15.23;;;7.12;;
62941;SDS011;49042;47.318;19.874;2023-03-08T12:20:42;10.95;;;7.57;;
62941;SDS011;49042;47.318;19.874;2023-03-08T12:27:05;11.12;;;6.47;;
62941;SDS011;49042;47.318;19.874;2023-03-08T12:33:47;12.13;;;6.80;;
62941;SDS011;49042;47.318;19.874;2023-03-08T12:36:49;13.45;;;6.35;;
62941;SDS011;49042;47.318;19.874;2023-03-08T12:40:01;9.05;;;5.78;;
62941;SDS011;49042;47.318;19.874;2023-03-08T12:43:12;19.80;;;5.68;;
62941;SDS011;49042;47.318;19.874;2023-03-08T12:46:27;13.65;;;5.82;;
62941;SDS011;49042;47.318;19.874;2023-03-08T12:50:06;9.73;;;5.00;;
62941;SDS011;49042;47.318;19.874;2023-03-08T12:53:25;9.77;;;5.65;;
62941;SDS011;49042;47.318;19.874;2023-03-08T12:56:36;10.75;;;5.00;;
62941;SDS011;49042;47.318;19.874;2023-03-08T12:59:54;8.63;;;5.53;;
62941;SDS011;49042;47.318;19.874;2023-03-08T13:03:04;10.93;;;5.43;;
62941;SDS011;49042;47.318;19.874;2023-03-08T13:19:24;9.05;;;5.93;;
62941;SDS011;49042;47.318;19.874;2023-03-08T13:22:30;11.65;;;6.75;;
62941;SDS011;49042;47.318;19.874;2023-03-08T13:29:17;20.35;;;10.05;;
62941;SDS011;49042;47.318;19.874;2023-03-08T13:32:20;17.67;;;6.47;;
62941;SDS011;49042;47.318;19.874;2023-03-08T13:35:24;10.13;;;6.28;;
62941;SDS011;49042;47.318;19.874;2023-03-08T13:38:28;18.20;;;11.63;;
62941;SDS011;49042;47.318;19.874;2023-03-08T13:44:40;16.70;;;6.53;;
62941;SDS011;49042;47.318;19.874;2023-03-08T13:47:42;10.10;;;6.97;;
62941;SDS011;49042;47.318;19.874;2023-03-08T13:53:09;11.57;;;7.40;;
62941;SDS011;49042;47.318;19.874;2023-03-08T13:56:25;9.32;;;6.35;;
62941;SDS011;49042;47.318;19.874;2023-03-08T13:59:28;13.88;;;8.55;;
62941;SDS011;49042;47.318;19.874;2023-03-08T14:02:30;9.98;;;7.00;;
62941;SDS011;49042;47.318;19.874;2023-03-08T14:05:38;12.93;;;6.40;;
62941;SDS011;49042;47.318;19.874;2023-03-08T14:08:42;18.15;;;7.37;;
62941;SDS011;49042;47.318;19.874;2023-03-08T14:11:46;11.07;;;6.95;;
62941;SDS011;49042;47.318;19.874;2023-03-08T14:15:00;12.57;;;5.97;;
62941;SDS011;49042;47.318;19.874;2023-03-08T14:18:05;10.95;;;6.20;;
62941;SDS011;49042;47.318;19.874;2023-03-08T14:24:22;11.10;;;5.65;;
62941;SDS011;49042;47.318;19.874;2023-03-08T14:27:31;19.52;;;9.93;;
62941;SDS011;49042;47.318;19.874;2023-03-08T14:30:51;19.17;;;9.68;;
62941;SDS011;49042;47.318;19.874;2023-03-08T14:34:00;12.27;;;4.85;;
62941;SDS011;49042;47.318;19.874;2023-03-08T14:37:04;8.45;;;4.72;;
62941;SDS011;49042;47.318;19.874;2023-03-08T14:43:16;10.68;;;4.80;;
62941;SDS011;49042;47.318;19.874;2023-03-08T14:46:20;9.50;;;4.60;;
62941;SDS011;49042;47.318;19.874;2023-03-08T14:49:25;9.27;;;4.30;;
62941;SDS011;49042;47.318;19.874;2023-03-08T14:52:30;10.05;;;4.82;;
62941;SDS011;49042;47.318;19.874;2023-03-08T14:55:34;10.68;;;4.43;;
62941;SDS011;49042;47.318;19.874;2023-03-08T14:58:37;8.50;;;5.07;;
62941;SDS011;49042;47.318;19.874;2023-03-08T15:01:40;9.13;;;4.97;;
62941;SDS011;49042;47.318;19.874;2023-03-08T15:04:42;16.60;;;5.10;;
62941;SDS011;49042;47.318;19.874;2023-03-08T15:07:45;18.65;;;8.68;;
62941;SDS011;49042;47.318;19.874;2023-03-08T15:10:48;12.45;;;4.87;;
62941;SDS011;49042;47.318;19.874;2023-03-08T15:13:50;10.25;;;5.50;;
62941;SDS011;49042;47.318;19.874;2023-03-08T15:16:52;11.32;;;4.70;;
62941;SDS011;49042;47.318;19.874;2023-03-08T15:19:58;12.50;;;4.75;;
62941;SDS011;49042;47.318;19.874;2023-03-08T15:23:00;10.50;;;4.57;;
62941;SDS011;49042;47.318;19.874;2023-03-08T15:26:06;8.43;;;5.18;;
62941;SDS011;49042;47.318;19.874;2023-03-08T15:29:11;10.10;;;5.70;;
62941;SDS011;49042;47.318;19.874;2023-03-08T15:32:26;8.63;;;4.60;;
62941;SDS011;49042;47.318;19.874;2023-03-08T15:35:28;10.43;;;4.80;;
62941;SDS011;49042;47.318;19.874;2023-03-08T15:38:30;10.82;;;4.72;;
62941;SDS011;49042;47.318;19.874;2023-03-08T15:41:32;7.75;;;4.45;;
62941;SDS011;49042;47.318;19.874;2023-03-08T15:44:33;9.55;;;4.40;;
62941;SDS011;49042;47.318;19.874;2023-03-08T15:47:35;6.53;;;4.68;;
62941;SDS011;49042;47.318;19.874;2023-03-08T15:50:37;7.68;;;4.57;;
62941;SDS011;49042;47.318;19.874;2023-03-08T15:53:39;9.43;;;4.72;;
62941;SDS011;49042;47.318;19.874;2023-03-08T15:56:41;9.20;;;4.78;;
62941;SDS011;49042;47.318;19.874;2023-03-08T15:59:43;8.43;;;4.62;;
62941;SDS011;49042;47.318;19.874;2023-03-08T16:02:45;9.85;;;4.85;;
62941;SDS011;49042;47.318;19.874;2023-03-08T16:05:46;13.20;;;5.95;;
62941;SDS011;49042;47.318;19.874;2023-03-08T16:08:48;13.02;;;5.80;;
62941;SDS011;49042;47.318;19.874;2023-03-08T16:11:50;19.37;;;7.00;;
62941;SDS011;49042;47.318;19.874;2023-03-08T16:14:52;17.67;;;5.25;;
62941;SDS011;49042;47.318;19.874;2023-03-08T16:17:57;11.88;;;4.75;;
62941;SDS011;49042;47.318;19.874;2023-03-08T16:20:59;15.10;;;4.55;;
62941;SDS011;49042;47.318;19.874;2023-03-08T16:24:01;10.52;;;4.78;;
62941;SDS011;49042;47.318;19.874;2023-03-08T16:27:03;8.93;;;4.68;;
62941;SDS011;49042;47.318;19.874;2023-03-08T16:30:05;8.10;;;4.70;;
62941;SDS011;49042;47.318;19.874;2023-03-08T16:33:07;7.97;;;4.65;;
62941;SDS011;49042;47.318;19.874;2023-03-08T16:36:09;10.98;;;5.72;;
62941;SDS011;49042;47.318;19.874;2023-03-08T16:39:11;8.90;;;5.07;;
62941;SDS011;49042;47.318;19.874;2023-03-08T16:42:13;8.75;;;4.75;;
62941;SDS011;49042;47.318;19.874;2023-03-08T16:45:16;11.48;;;5.35;;
62941;SDS011;49042;47.318;19.874;2023-03-08T16:48:17;8.80;;;4.68;;
62941;SDS011;49042;47.318;19.874;2023-03-08T16:51:19;7.78;;;4.65;;
62941;SDS011;49042;47.318;19.874;2023-03-08T16:54:23;8.52;;;5.12;;
62941;SDS011;49042;47.318;19.874;2023-03-08T16:57:25;7.87;;;4.60;;
62941;SDS011;49042;47.318;19.874;2023-03-08T17:00:27;9.63;;;6.12;;
62941;SDS011;49042;47.318;19.874;2023-03-08T17:03:29;12.05;;;6.87;;
62941;SDS011;49042;47.318;19.874;2023-03-08T17:06:31;10.68;;;5.30;;
62941;SDS011;49042;47.318;19.874;2023-03-08T17:09:34;7.78;;;4.90;;
62941;SDS011;49042;47.318;19.874;2023-03-08T17:12:36;15.00;;;5.30;;
62941;SDS011;49042;47.318;19.874;2023-03-08T17:15:42;13.45;;;6.65;;
62941;SDS011;49042;47.318;19.874;2023-03-08T17:18:48;9.50;;;5.50;;
62941;SDS011;49042;47.318;19.874;2023-03-08T17:21:50;9.68;;;5.43;;
62941;SDS011;49042;47.318;19.874;2023-03-08T17:24:52;10.98;;;5.20;;
62941;SDS011;49042;47.318;19.874;2023-03-08T17:27:55;17.30;;;5.37;;
62941;SDS011;49042;47.318;19.874;2023-03-08T17:30:57;13.35;;;5.10;;
62941;SDS011;49042;47.318;19.874;2023-03-08T17:34:00;8.80;;;5.43;;
62941;SDS011;49042;47.318;19.874;2023-03-08T17:37:02;8.52;;;4.65;;
62941;SDS011;49042;47.318;19.874;2023-03-08T17:40:04;9.73;;;4.93;;
62941;SDS011;49042;47.318;19.874;2023-03-08T17:43:06;7.43;;;4.80;;
62941;SDS011;49042;47.318;19.874;2023-03-08T17:46:19;7.62;;;4.75;;
62941;SDS011;49042;47.318;19.874;2023-03-08T17:49:23;15.75;;;4.70;;
62941;SDS011;49042;47.318;19.874;2023-03-08T17:52:25;12.50;;;4.97;;
62941;SDS011;49042;47.318;19.874;2023-03-08T17:55:27;7.82;;;4.90;;
62941;SDS011;49042;47.318;19.874;2023-03-08T17:58:30;9.95;;;5.35;;
62941;SDS011;49042;47.318;19.874;2023-03-08T18:01:32;9.57;;;5.45;;
62941;SDS011;49042;47.318;19.874;2023-03-08T18:04:34;18.15;;;5.55;;
62941;SDS011;49042;47.318;19.874;2023-03-08T18:07:36;12.95;;;5.35;;
62941;SDS011;49042;47.318;19.874;2023-03-08T18:10:42;10.10;;;5.50;;
62941;SDS011;49042;47.318;19.874;2023-03-08T18:13:44;8.57;;;4.90;;
62941;SDS011;49042;47.318;19.874;2023-03-08T18:16:46;9.88;;;4.75;;
62941;SDS011;49042;47.318;19.874;2023-03-08T18:19:48;11.38;;;5.53;;
62941;SDS011;49042;47.318;19.874;2023-03-08T18:22:51;14.13;;;6.28;;
62941;SDS011;49042;47.318;19.874;2023-03-08T18:25:56;9.95;;;5.37;;
62941;SDS011;49042;47.318;19.874;2023-03-08T18:29:00;8.00;;;4.90;;
62941;SDS011;49042;47.318;19.874;2023-03-08T18:32:02;13.77;;;6.05;;
62941;SDS011;49042;47.318;19.874;2023-03-08T18:35:06;13.27;;;6.07;;
62941;SDS011;49042;47.318;19.874;2023-03-08T18:38:09;13.77;;;5.80;;
62941;SDS011;49042;47.318;19.874;2023-03-08T18:41:22;13.75;;;6.72;;
62941;SDS011;49042;47.318;19.874;2023-03-08T18:44:28;11.25;;;6.53;;
62941;SDS011;49042;47.318;19.874;2023-03-08T18:47:30;15.88;;;9.23;;
62941;SDS011;49042;47.318;19.874;2023-03-08T18:50:33;13.88;;;6.82;;
62941;SDS011;49042;47.318;19.874;2023-03-08T18:53:38;14.73;;;7.43;;
62941;SDS011;49042;47.318;19.874;2023-03-08T18:56:41;15.93;;;8.60;;
62941;SDS011;49042;47.318;19.874;2023-03-08T18:59:44;12.35;;;7.55;;
62941;SDS011;49042;47.318;19.874;2023-03-08T19:02:46;19.77;;;13.30;;
62941;SDS011;49042;47.318;19.874;2023-03-08T19:05:49;24.42;;;15.18;;
62941;SDS011;49042;47.318;19.874;2023-03-08T19:08:52;23.60;;;16.37;;
62941;SDS011;49042;47.318;19.874;2023-03-08T19:11:54;15.80;;;7.60;;
62941;SDS011;49042;47.318;19.874;2023-03-08T19:14:58;16.45;;;8.15;;
62941;SDS011;49042;47.318;19.874;2023-03-08T19:18:05;20.17;;;11.48;;